Leraysville, Pennsylvania
Current Conditions -  °F | °C
As of 3:53 PM on Tuesday 21 Oct 2014 (Local Time) from KBGM Reporting Station
Overcast Overcast  
Wind Chill: 53°   Ceiling: 2100
Heat Index: 53°   Visibility: 10mi
Dew Point: 46°   Wind: 3mph
Humidity: 77%   Direction: 240°WSW
Pressure: 29.86"   Gusts: NA
Location:  41.8451°N, 76.1758°W
Report Text: KBGM 211953Z 24003KT 10SM BKN021 OVC046 12/08 A2986 RMK AO2 SLP114 T01170078
Loading
Personal Weather Stations






























Interactive Weather Map
Tropical Storm Tracking
New forecast layout! Learn more

10-Day Weather Forecast

Advertisements
Track Severe Weather on mobile